الصفحة الرئيسية
METAR-TAF:

METAR-TAF

مطار :

كوراساو, جزر الأنتيل الهولندية

دائرة عرض: 12-12N, خط طول: 068-58W, ارتفاع: 9 متر

مراقبة الطقس الحالي

تاريخ ووقت الإصدار 1ساعة و 9 دقيقة قبل الساعة 22:00UTC
ريح 11 عقدة من الشرق
درجة الحرارة 29°درجة مئوية
الرطوبة 79%
ضغط 1012 hPa
الرؤية 10 كم أو أكثر
غيوم قليلة على ارتفاع 2000 قدم

METAR: TNCC 132200Z 08011KT 9999 FEW020 29/25 Q1012 NOSIG

زمن: 19:09 (23:09 UTC)

توقعات

تاريخ ووقت الإصدار 5ساعات و 54 دقيقة قبل الساعة 17:15UTC
التوقعات صالحة من13 الساعة 18 UTC إلى 14 الساعة 18 UTC
ريح 13 عقدة من الشرق
الرؤية 10 كم أو أكثر
غيوم قليلة على ارتفاع 2700 قدم

TAF: TNCC 131715Z 1318/1418 08013KT 9999 FEW027

أرصاد الطقس والتوقعات من أكثر من 4000 مطار (تقارير الطقس للمطار METAR والتنبؤ بالطقس بالمطارTAF).

المحطات المتاحة هي النقط الصفراء والحمراء على الخريطة.

حرك المؤشر فوق النقطة لمعرفة اسم المحطة.

ثم انقر لمعرفة أرصاد وتوقعات الطقس.

لتغيير الخارطة: اضغط على الأزرار الخضراء مع رمز الصليب الأسود للتكبير. على الزر الأخضر مع شرطة للتصغير، أو على الأسهم الخضراء للخرائط المجاورة.


METAR-TAF: